Time;durP1;ratioP1;P1;durP2;ratioP2;P2;SDS_P1;SDS_P2;PMS_P1;PMS_P2;Temp;Humidity;BMP_temperature;BMP_pressure;BME280_temperature;BME280_humidity;BME280_pressure;Samples;Min_cycle;Max_cycle;Signal;HPM_P1;HPM_P2
2020/12/16 00:00:27;;;;;;;28.40;13.32;;;;;;;4.04;75.66;101625.58;1715508;82;21607;-60
2020/12/16 00:02:54;;;;;;;26.93;13.13;;;;;;;4.03;75.85;101622.50;1716219;82;21652;-60
2020/12/16 00:05:22;;;;;;;27.37;13.98;;;;;;;4.10;75.69;101620.98;1739805;81;21643;-60
2020/12/16 00:07:49;;;;;;;22.85;12.78;;;;;;;4.20;75.41;101617.86;1722651;82;21159;-61
2020/12/16 00:10:18;;;;;;;23.95;12.68;;;;;;;4.23;75.55;101624.88;1696820;83;21323;-61
2020/12/16 00:13:23;;;;;;;24.70;12.28;;;;;;;4.27;75.37;101615.94;1707821;82;21307;-60
2020/12/16 00:15:50;;;;;;;24.57;11.70;;;;;;;4.33;75.21;101616.98;1743715;81;21341;-61
2020/12/16 00:18:20;;;;;;;22.50;12.03;;;;;;;4.30;75.13;101617.75;1719926;82;21175;-60
2020/12/16 00:20:48;;;;;;;26.37;12.23;;;;;;;4.27;75.35;101621.55;1719837;82;21160;-60
2020/12/16 00:23:16;;;;;;;23.35;12.20;;;;;;;4.28;75.52;101624.62;1732045;82;21161;-60
2020/12/16 00:25:44;;;;;;;28.65;13.75;;;;;;;4.30;75.48;101622.95;1731969;81;21651;-60
2020/12/16 00:28:11;;;;;;;23.00;11.83;;;;;;;4.31;75.37;101625.63;1709639;82;21160;-60
2020/12/16 00:30:38;;;;;;;24.18;11.55;;;;;;;4.35;75.42;101627.05;1719694;81;21139;-59
2020/12/16 00:33:53;;;;;;;24.07;13.28;;;;;;;4.42;74.91;101625.08;1724417;82;21641;-60
2020/12/16 00:36:21;;;;;;;20.25;10.50;;;;;;;4.33;74.96;101619.59;1740777;81;21165;-60
2020/12/16 00:38:50;;;;;;;25.88;13.45;;;;;;;4.22;75.05;101621.41;1743680;81;21717;-60
2020/12/16 00:41:18;;;;;;;18.45;10.68;;;;;;;4.16;75.05;101615.98;1723796;82;21185;-60
2020/12/16 00:43:46;;;;;;;24.25;11.75;;;;;;;4.15;75.19;101626.84;1741364;81;21167;-61
2020/12/16 00:46:14;;;;;;;23.80;11.18;;;;;;;4.18;75.06;101619.97;1750806;81;21629;-60
2020/12/16 00:49:03;;;;;;;25.55;13.00;;;;;;;4.23;74.99;101621.88;1717751;81;21181;-60
2020/12/16 00:51:40;;;;;;;24.35;11.63;;;;;;;4.22;75.04;101623.11;1732700;81;21221;-60
2020/12/16 00:54:09;;;;;;;24.27;12.28;;;;;;;4.24;75.16;101625.36;1720509;81;21193;-60
2020/12/16 00:56:39;;;;;;;22.77;11.73;;;;;;;4.20;75.20;101627.39;1729453;81;21181;-60
2020/12/16 00:59:06;;;;;;;26.23;11.68;;;;;;;4.27;75.13;101627.66;1700392;81;21756;-60
2020/12/16 01:02:21;;;;;;;20.92;10.55;;;;;;;4.28;75.00;101624.23;1752285;81;21319;-60
2020/12/16 01:05:25;;;;;;;22.37;11.28;;;;;;;4.22;75.25;101620.11;1732592;81;21155;-61
2020/12/16 01:07:53;;;;;;;20.85;10.20;;;;;;;4.23;75.31;101621.88;1754404;81;21174;-60
2020/12/16 01:10:21;;;;;;;27.30;12.07;;;;;;;4.24;75.50;101615.83;1702614;83;21230;-61
2020/12/16 01:12:49;;;;;;;22.98;11.45;;;;;;;4.30;75.30;101611.23;1675780;84;21261;-60
2020/12/16 01:15:20;;;;;;;19.70;10.80;;;;;;;4.26;75.42;101610.25;1709403;83;21154;-59
2020/12/16 01:17:50;;;;;;;22.60;12.05;;;;;;;4.24;75.54;101617.13;1682815;84;21268;-60
2020/12/16 01:20:20;;;;;;;20.15;11.20;;;;;;;4.20;75.42;101616.96;1692748;83;21192;-60
2020/12/16 01:22:48;;;;;;;24.47;11.57;;;;;;;4.22;75.34;101617.50;1705270;82;21602;-59
2020/12/16 01:25:18;;;;;;;26.40;11.83;;;;;;;4.23;75.34;101613.16;1690403;83;21236;-60
2020/12/16 01:28:00;;;;;;;27.90;11.90;;;;;;;4.25;75.38;101611.48;1702463;83;21170;-59
2020/12/16 01:30:29;;;;;;;21.70;12.13;;;;;;;4.20;75.40;101618.27;1713720;82;21146;-60
2020/12/16 01:32:57;;;;;;;22.02;11.45;;;;;;;4.06;75.71;101616.09;1714658;82;21194;-60
2020/12/16 01:35:25;;;;;;;23.52;11.88;;;;;;;4.10;75.60;101618.38;1712431;82;21165;-60
2020/12/16 01:37:54;;;;;;;24.02;10.80;;;;;;;4.12;75.60;101621.92;1726367;82;21150;-60
2020/12/16 01:40:24;;;;;;;27.48;12.90;;;;;;;4.12;75.58;101618.91;1713554;82;21165;-60
2020/12/16 01:42:51;;;;;;;26.93;13.60;;;;;;;4.02;75.91;101611.17;1690519;83;21308;-60
2020/12/16 01:49:07;;;;;;;22.85;12.05;;;;;;;4.08;75.67;101613.53;1752154;81;21173;-60
2020/12/16 01:51:35;;;;;;;33.73;12.93;;;;;;;3.94;76.12;101614.36;1736331;81;21291;-61
2020/12/16 01:54:05;;;;;;;25.45;12.82;;;;;;;3.90;76.12;101618.59;1688612;83;21146;-61
2020/12/16 01:56:37;;;;;;;28.98;14.05;;;;;;;3.85;76.12;101610.59;1704926;83;21183;-60
2020/12/16 01:59:08;;;;;;;21.65;10.75;;;;;;;3.83;76.14;101612.69;1746771;81;21206;-60
2020/12/16 02:01:37;;;;;;;26.97;12.28;;;;;;;3.82;76.18;101614.39;1748551;81;21137;-60
2020/12/16 02:04:05;;;;;;;21.82;10.82;;;;;;;3.87;76.22;101613.27;1711493;82;21154;-61
2020/12/16 02:06:35;;;;;;;30.60;14.18;;;;;;;3.86;76.30;101608.46;1692669;81;21142;-60
2020/12/16 02:09:06;;;;;;;22.37;11.60;;;;;;;3.90;76.06;101604.66;1738200;81;21190;-60
2020/12/16 02:16:37;;;;;;;24.50;11.93;;;;;;;3.82;76.18;101601.38;1713868;82;21159;-60
2020/12/16 02:19:07;;;;;;;20.85;11.43;;;;;;;3.81;76.22;101600.03;1706317;83;21205;-60
2020/12/16 02:21:37;;;;;;;22.67;11.78;;;;;;;3.75;76.47;101603.31;1714570;82;21218;-60
2020/12/16 02:24:51;;;;;;;24.25;12.43;;;;;;;3.78;76.33;101608.60;1717347;82;21206;-60
2020/12/16 02:27:19;;;;;;;21.17;11.68;;;;;;;3.69;76.62;101601.36;1688051;84;21256;-60
2020/12/16 02:29:47;;;;;;;22.75;11.78;;;;;;;3.74;76.68;101611.95;1709990;83;21246;-60
2020/12/16 02:32:16;;;;;;;25.08;12.58;;;;;;;3.76;76.54;101610.70;1708558;82;21177;-60
2020/12/16 02:34:45;;;;;;;23.35;12.13;;;;;;;3.74;76.60;101608.05;1708585;83;21155;-60
2020/12/16 02:37:14;;;;;;;23.02;11.83;;;;;;;3.72;76.61;101611.88;1713352;82;21202;-60
2020/12/16 02:39:45;;;;;;;21.68;10.93;;;;;;;3.74;76.41;101613.66;1713039;81;21183;-60
2020/12/16 02:42:26;;;;;;;23.25;10.60;;;;;;;3.66;76.71;101616.00;1710821;83;21161;-60
2020/12/16 02:44:57;;;;;;;22.63;11.23;;;;;;;3.61;76.96;101621.02;1702307;83;21201;-60
2020/12/16 02:47:35;;;;;;;23.07;11.88;;;;;;;3.72;76.76;101618.39;1813261;77;22139;-59
2020/12/16 02:50:03;;;;;;;24.25;11.95;;;;;;;3.74;76.58;101627.58;1776738;80;21122;-58
2020/12/16 03:00:16;;;;;;;20.32;10.18;;;;;;;3.60;76.77;101635.30;1743491;81;21126;-60
2020/12/16 03:03:00;;;;;;;18.15;10.40;;;;;;;3.69;76.96;101638.25;1810940;77;22148;-59
2020/12/16 03:05:36;;;;;;;17.90;9.75;;;;;;;3.69;76.77;101644.33;1753198;81;21119;-60
2020/12/16 03:08:09;;;;;;;19.00;10.45;;;;;;;3.58;76.95;101643.04;1762216;80;21129;-60
2020/12/16 03:10:38;;;;;;;19.75;11.20;;;;;;;3.59;76.93;101646.55;1760941;80;21281;-60
2020/12/16 03:13:06;;;;;;;25.72;11.10;;;;;;;3.57;76.85;101651.28;1759350;81;21094;-60
2020/12/16 03:15:36;;;;;;;21.77;10.53;;;;;;;3.62;76.69;101653.17;1758741;81;21589;-62
2020/12/16 03:18:04;;;;;;;22.15;11.93;;;;;;;3.63;76.55;101649.30;1766988;80;21158;-61
2020/12/16 03:20:33;;;;;;;24.43;12.47;;;;;;;3.74;76.41;101651.02;1760957;81;21106;-60
2020/12/16 03:23:01;;;;;;;21.48;11.40;;;;;;;3.80;76.33;101658.16;1760252;81;21119;-60
2020/12/16 03:25:49;;;;;;;20.82;9.95;;;;;;;3.64;76.51;101654.11;1762781;80;21603;-63
2020/12/16 03:28:27;;;;;;;22.22;10.53;;;;;;;3.67;76.21;101653.80;1836339;77;22142;-62
2020/12/16 03:31:14;;;;;;;20.68;11.57;;;;;;;3.57;76.52;101658.19;1765084;78;21143;-62
2020/12/16 03:33:59;;;;;;;23.40;11.10;;;;;;;3.50;76.65;101665.33;1782864;80;21165;-60
2020/12/16 03:36:29;;;;;;;20.43;11.08;;;;;;;3.62;76.28;101663.59;1775475;80;21175;-62
2020/12/16 03:38:58;;;;;;;21.27;11.57;;;;;;;3.53;76.39;101665.02;1783180;80;21134;-60
2020/12/16 03:41:26;;;;;;;20.15;10.68;;;;;;;3.51;76.55;101667.10;1771009;80;21162;-61
2020/12/16 03:43:55;;;;;;;18.73;10.72;;;;;;;3.53;76.57;101664.14;1781375;80;21146;-60
2020/12/16 03:50:43;;;;;;;20.72;11.10;;;;;;;3.52;76.54;101662.37;1779576;80;21113;-62
2020/12/16 03:53:11;;;;;;;19.45;10.45;;;;;;;3.59;76.44;101664.77;1772940;80;21278;-62
2020/12/16 03:55:55;;;;;;;22.48;12.33;;;;;;;3.59;76.45;101669.98;1792847;77;22185;-61
2020/12/16 03:58:33;;;;;;;20.55;11.28;;;;;;;3.54;76.44;101670.69;1759129;81;21637;-62
2020/12/16 04:01:05;;;;;;;20.12;11.57;;;;;;;3.56;76.32;101670.33;1757860;80;21115;-61
2020/12/16 04:12:07;;;;;;;17.15;9.38;;;;;;;3.56;76.28;101679.45;1766317;80;21650;-62
2020/12/16 04:18:38;;;;;;;;;;;;;;;3.61;76.52;101686.55;1760980;81;21146;-60
2020/12/16 04:21:08;;;;;;;18.37;10.72;;;;;;;3.36;77.27;101694.70;1765863;80;20189;-60
2020/12/16 04:23:37;;;;;;;19.95;10.68;;;;;;;3.43;77.25;101692.81;1758692;81;21181;-61
2020/12/16 04:26:12;;;;;;;19.10;10.93;;;;;;;3.50;77.16;101696.56;1756475;81;21151;-60
2020/12/16 04:28:42;;;;;;;22.22;11.15;;;;;;;3.56;77.10;101697.67;1764945;80;21107;-61
2020/12/16 04:31:10;;;;;;;22.85;12.58;;;;;;;3.56;77.32;101704.18;1758270;81;21880;-60
2020/12/16 04:33:39;;;;;;;16.35;10.08;;;;;;;3.57;77.21;101703.35;1759067;81;21143;-60
2020/12/16 04:36:09;;;;;;;22.00;11.33;;;;;;;3.62;77.13;101706.12;1759718;80;21114;-61
2020/12/16 04:38:37;;;;;;;20.97;11.00;;;;;;;3.62;77.04;101706.55;1742130;81;21211;-61
2020/12/16 04:41:09;;;;;;;20.97;12.13;;;;;;;3.55;77.41;101706.31;1699553;83;21886;-61
2020/12/16 04:43:42;;;;;;;20.62;11.12;;;;;;;3.46;77.45;101711.16;1724668;83;21194;-60
2020/12/16 04:46:14;;;;;;;18.85;11.97;;;;;;;3.56;77.01;101708.09;1706005;83;21110;-60
2020/12/16 04:48:44;;;;;;;19.57;11.78;;;;;;;3.57;76.81;101715.06;1725083;83;21559;-60
2020/12/16 04:51:17;;;;;;;18.55;10.93;;;;;;;3.57;76.78;101709.86;1698159;83;21119;-60
2020/12/16 04:53:46;;;;;;;17.25;10.53;;;;;;;3.59;76.93;101707.73;1724769;83;21127;-60
2020/12/16 05:00:23;;;;;;;19.35;10.95;;;;;;;3.66;77.02;101716.25;1706404;83;21150;-60
2020/12/16 05:03:09;;;;;;;19.77;11.15;;;;;;;3.70;76.84;101716.41;1730035;82;21149;-61
2020/12/16 05:05:55;;;;;;;21.97;12.68;;;;;;;3.77;76.63;101724.02;1743397;81;21151;-59
2020/12/16 05:08:23;;;;;;;25.52;13.78;;;;;;;3.77;76.56;101715.34;1710374;83;21139;-61
2020/12/16 05:14:58;;;;;;;25.27;12.28;;;;;;;3.88;76.22;101719.23;1701265;83;21179;-61
2020/12/16 05:17:26;;;;;;;21.45;13.08;;;;;;;3.93;76.37;101720.70;1708017;83;21270;-60
2020/12/16 05:20:02;;;;;;;38.35;22.82;;;;;;;4.02;76.33;101723.21;1803078;77;28048;-59
2020/12/16 05:26:31;;;;;;;20.68;11.57;;;;;;;3.99;76.38;101727.44;1792956;80;21771;-60
2020/12/16 05:28:59;;;;;;;20.95;12.47;;;;;;;4.04;76.32;101738.02;1763591;80;21202;-60
2020/12/16 05:31:28;;;;;;;31.02;16.48;;;;;;;4.05;76.25;101735.48;1764283;80;21458;-59
2020/12/16 05:33:56;;;;;;;24.92;14.40;;;;;;;4.09;76.21;101735.16;1760723;80;21554;-61
2020/12/16 05:36:29;;;;;;;30.43;12.53;;;;;;;4.11;76.30;101734.80;1762744;80;21170;-62
2020/12/16 05:38:58;;;;;;;23.05;12.03;;;;;;;4.21;76.15;101735.61;1782622;80;21134;-60
2020/12/16 05:41:30;;;;;;;28.23;13.80;;;;;;;4.25;76.10;101739.20;1763440;80;21154;-61
2020/12/16 05:44:18;;;;;;;21.75;12.90;;;;;;;4.22;76.33;101745.20;1792537;80;21143;-60
2020/12/16 05:46:50;;;;;;;26.10;12.90;;;;;;;4.26;76.47;101747.09;1758344;81;21284;-59
2020/12/16 05:49:26;;;;;;;26.35;12.88;;;;;;;4.25;76.47;101746.63;1731708;82;21146;-61
2020/12/16 05:52:05;;;;;;;28.90;14.38;;;;;;;4.27;76.54;101751.48;1718443;83;21693;-60
2020/12/16 06:03:17;;;;;;;24.60;10.53;;;;;;;4.29;76.09;101752.81;1702084;83;21130;-60
2020/12/16 06:06:06;;;;;;;27.05;11.33;;;;;;;4.29;75.98;101748.91;1715322;83;21236;-61
2020/12/16 06:08:53;;;;;;;22.75;12.05;;;;;;;4.40;75.54;101749.31;1700513;83;21138;-61
2020/12/16 06:11:22;;;;;;;23.70;13.72;;;;;;;4.38;75.51;101757.49;1722237;83;21146;-61
2020/12/16 06:14:45;;;;;;;25.97;14.18;;;;;;;4.31;75.83;101759.88;1703564;83;21170;-61
2020/12/16 06:17:40;;;;;;;24.18;11.80;;;;;;;4.26;75.99;101760.13;1692827;84;21162;-60
2020/12/16 06:20:14;;;;;;;20.30;11.25;;;;;;;4.28;75.87;101763.67;1743390;82;21574;-60
2020/12/16 06:22:43;;;;;;;19.48;12.05;;;;;;;4.21;75.98;101760.77;1694389;83;21162;-60
2020/12/16 06:25:15;;;;;;;20.55;11.60;;;;;;;5.33;72.77;101764.09;1757967;80;21158;-60
2020/12/16 06:27:48;;;;;;;34.50;12.55;;;;;;;4.49;74.73;101765.69;1782854;80;21100;-61
2020/12/16 06:30:30;;;;;;;17.50;10.95;;;;;;;4.21;75.82;101768.59;1776748;80;21151;-60
2020/12/16 06:33:14;;;;;;;20.95;12.28;;;;;;;4.12;76.08;101772.66;1780247;80;21273;-61
2020/12/16 06:35:42;;;;;;;19.42;11.33;;;;;;;4.14;75.94;101762.28;1787130;80;21224;-60
2020/12/16 06:38:23;;;;;;;21.93;12.88;;;;;;;4.14;75.97;101774.01;1770142;80;21257;-60
2020/12/16 06:40:52;;;;;;;22.15;11.63;;;;;;;4.10;76.20;101774.32;1782675;80;21175;-60
2020/12/16 06:43:34;;;;;;;19.12;11.12;;;;;;;3.88;76.60;101773.94;1766432;80;22558;-60
2020/12/16 06:46:23;;;;;;;19.25;12.03;;;;;;;3.95;76.55;101781.56;1780512;80;21150;-60
2020/12/16 06:48:50;;;;;;;19.67;11.18;;;;;;;3.97;76.45;101784.72;1770519;80;21601;-60
2020/12/16 06:51:24;;;;;;;24.27;12.95;;;;;;;3.96;76.59;101780.73;1785984;80;21134;-61
2020/12/16 06:54:11;;;;;;;26.10;13.75;;;;;;;3.89;76.84;101783.93;1776451;80;21681;-61
2020/12/16 06:56:42;;;;;;;22.17;12.30;;;;;;;3.87;76.93;101786.06;1782297;80;21122;-62
2020/12/16 06:59:12;;;;;;;23.50;12.63;;;;;;;3.90;76.98;101789.61;1784196;80;21297;-61
2020/12/16 07:02:25;;;;;;;25.37;13.15;;;;;;;3.90;77.16;101795.73;1776603;80;21122;-62
2020/12/16 07:09:23;;;;;;;23.70;12.00;;;;;;;4.03;76.95;101795.77;1780907;80;21142;-61
2020/12/16 07:11:54;;;;;;;21.70;12.47;;;;;;;4.01;77.01;101800.91;1758359;80;21212;-61
2020/12/16 07:14:24;;;;;;;24.43;13.20;;;;;;;4.06;76.89;101802.40;1761373;80;21190;-61
2020/12/16 07:16:52;;;;;;;22.85;11.53;;;;;;;4.10;76.80;101802.98;1767521;80;21582;-62
2020/12/16 07:19:28;;;;;;;25.25;12.53;;;;;;;4.07;76.98;101807.18;1770811;80;21206;-62
2020/12/16 07:21:57;;;;;;;25.37;13.28;;;;;;;4.04;77.37;101801.45;1743238;82;21318;-62
2020/12/16 07:24:25;;;;;;;25.52;13.53;;;;;;;4.11;77.34;101809.98;1733016;82;21187;-62
2020/12/16 07:26:55;;;;;;;25.25;12.43;;;;;;;4.17;77.20;101810.61;1764907;80;21556;-61
2020/12/16 07:29:55;;;;;;;20.90;11.73;;;;;;;4.21;77.15;101815.50;1762774;80;21528;-61
2020/12/16 07:32:41;;;;;;;21.02;11.80;;;;;;;4.25;77.04;101813.09;1724392;82;21602;-61
2020/12/16 07:35:09;;;;;;;22.15;12.55;;;;;;;4.28;77.07;101810.99;1767124;80;21159;-62
2020/12/16 07:37:36;;;;;;;23.25;13.88;;;;;;;4.29;77.10;101814.98;1747547;82;21131;-61
2020/12/16 07:40:10;;;;;;;24.32;12.73;;;;;;;4.31;77.18;101818.92;1767716;80;21166;-63
2020/12/16 07:42:34;;;;;;;;;;;;;;;4.28;76.83;101813.60;1771657;80;21135;-62
2020/12/16 07:45:07;;;;;;;34.23;17.75;;;;;;;4.27;76.85;101817.94;1786526;80;20159;-62
2020/12/16 07:47:35;;;;;;;23.65;12.98;;;;;;;4.29;77.06;101820.19;1785430;80;21131;-62
2020/12/16 07:50:05;;;;;;;22.67;12.50;;;;;;;4.36;76.99;101825.20;1777602;80;21301;-61
2020/12/16 07:52:33;;;;;;;22.20;12.85;;;;;;;4.36;76.91;101825.63;1776616;80;21131;-62
2020/12/16 07:55:00;;;;;;;22.22;12.35;;;;;;;4.37;76.86;101823.50;1763668;80;21558;-62
2020/12/16 07:57:31;;;;;;;24.52;13.68;;;;;;;4.37;76.86;101825.67;1787128;80;21126;-62
2020/12/16 07:59:59;;;;;;;20.55;12.90;;;;;;;4.38;76.99;101826.58;1755608;80;21795;-62
2020/12/16 08:02:26;;;;;;;21.33;11.85;;;;;;;4.38;76.91;101826.58;1756053;80;21138;-63
2020/12/16 08:04:57;;;;;;;20.32;11.97;;;;;;;4.38;76.80;101826.14;1757575;80;21589;-62
2020/12/16 08:07:25;;;;;;;;;;;;;;;4.41;76.70;101822.78;1755634;80;21281;-62
2020/12/16 08:10:06;;;;;;;22.40;12.13;;;;;;;4.46;76.42;101823.80;1758736;80;20252;-62
2020/12/16 08:12:41;;;;;;;23.30;14.30;;;;;;;4.62;76.13;101820.05;1764455;80;21159;-62
2020/12/16 08:15:19;;;;;;;22.93;13.45;;;;;;;4.53;76.39;101822.33;1780977;80;21571;-62
2020/12/16 08:17:48;;;;;;;18.60;12.47;;;;;;;4.55;76.40;101823.27;1777842;80;21159;-60
2020/12/16 08:20:23;;;;;;;22.70;12.03;;;;;;;4.59;76.14;101823.86;1729878;82;21231;-60
2020/12/16 08:23:01;;;;;;;20.37;12.60;;;;;;;4.53;76.36;101815.81;1702865;82;21163;-61
2020/12/16 08:25:31;;;;;;;20.20;10.82;;;;;;;4.53;76.47;101818.41;1745920;82;21112;-61
2020/12/16 08:27:59;;;;;;;23.75;11.93;;;;;;;4.59;75.72;101815.59;1741495;82;21733;-61
2020/12/16 08:30:28;;;;;;;21.20;12.85;;;;;;;4.64;75.72;101808.36;1745163;82;21679;-61
2020/12/16 08:33:13;;;;;;;21.80;13.55;;;;;;;4.48;76.40;101810.41;1741096;82;21313;-61
2020/12/16 08:36:04;;;;;;;34.38;16.07;;;;;;;4.51;76.62;101811.83;1747104;82;21318;-60
2020/12/16 08:38:40;;;;;;;20.72;12.82;;;;;;;4.54;76.76;101813.23;1735387;82;21135;-60
2020/12/16 08:41:10;;;;;;;19.80;12.28;;;;;;;4.56;77.03;101809.40;1735324;82;21188;-61
2020/12/16 08:43:40;;;;;;;16.77;10.30;;;;;;;4.52;76.84;101812.30;1720100;82;21571;-61
2020/12/16 08:46:17;;;;;;;21.05;12.65;;;;;;;4.42;76.33;101811.48;1723604;82;21135;-62
2020/12/16 08:49:01;;;;;;;15.68;9.68;;;;;;;4.35;76.75;101814.73;1729319;82;21303;-61
2020/12/16 08:51:42;;;;;;;16.73;10.13;;;;;;;4.30;75.92;101816.75;1721928;82;21274;-61
2020/12/16 08:54:11;;;;;;;14.10;9.67;;;;;;;4.20;75.40;101817.23;1732236;82;21119;-60
2020/12/16 08:59:28;;;;;;;14.28;9.48;;;;;;;3.82;75.75;101821.89;1814569;77;22132;-59
2020/12/16 09:02:09;;;;;;;15.43;10.73;;;;;;;3.94;75.66;101822.77;1760757;81;21131;-59
2020/12/16 09:04:41;;;;;;;14.95;9.15;;;;;;;3.81;76.53;101821.42;1759683;81;21582;-61
2020/12/16 09:07:24;;;;;;;16.20;9.85;;;;;;;3.97;76.10;101826.80;1752287;81;21143;-60
2020/12/16 09:09:55;;;;;;;18.50;10.55;;;;;;;3.95;76.07;101826.75;1757993;80;21751;-60
2020/12/16 09:12:23;;;;;;;16.27;10.78;;;;;;;4.05;76.35;101833.59;1746055;81;21279;-61
2020/12/16 09:17:53;;;;;;;13.35;8.23;;;;;;;4.29;77.00;101833.22;1809620;77;22611;-62
2020/12/16 09:20:21;;;;;;;13.65;7.85;;;;;;;4.24;76.86;101832.16;1766190;80;21143;-62
2020/12/16 09:22:55;;;;;;;67.45;17.15;;;;;;;4.27;76.57;101837.89;1769499;80;21572;-61
2020/12/16 09:25:22;;;;;;;150.10;20.50;;;;;;;4.18;77.47;101829.75;1774406;80;21665;-63
2020/12/16 09:27:57;;;;;;;32.05;11.22;;;;;;;4.58;79.14;101827.30;1749908;80;21162;-60
2020/12/16 09:30:33;;;;;;;18.02;10.85;;;;;;;4.71;78.10;101824.27;1756231;80;21177;-59
2020/12/16 09:33:14;;;;;;;31.00;11.12;;;;;;;4.54;76.74;101828.02;1743740;80;21189;-62
2020/12/16 09:35:43;;;;;;;25.82;9.85;;;;;;;4.38;76.19;101827.45;1764798;80;21195;-61
2020/12/16 09:42:20;;;;;;;13.55;8.08;;;;;;;4.24;77.11;101824.73;1754723;80;21636;-61
2020/12/16 09:44:47;;;;;;;14.03;9.20;;;;;;;4.33;77.36;101822.48;1759505;80;21189;-61
2020/12/16 09:47:22;;;;;;;15.40;10.10;;;;;;;4.41;77.41;101821.48;1727231;81;21182;-62
2020/12/16 09:50:03;;;;;;;16.70;9.93;;;;;;;4.42;77.45;101815.00;1729083;81;21114;-62
2020/12/16 09:52:36;;;;;;;15.43;9.40;;;;;;;4.50;77.04;101814.39;1725263;81;21172;-60
2020/12/16 09:55:20;;;;;;;17.40;9.98;;;;;;;4.45;77.38;101812.91;1732752;81;21144;-62
2020/12/16 09:58:02;;;;;;;18.70;13.83;;;;;;;4.45;77.53;101810.30;1743399;81;21198;-61
2020/12/16 10:00:34;;;;;;;15.23;10.03;;;;;;;4.50;77.21;101811.78;1743948;81;21177;-60
2020/12/16 10:03:07;;;;;;;13.62;9.30;;;;;;;4.40;76.54;101807.53;1715245;81;21272;-61
2020/12/16 10:05:39;;;;;;;16.10;9.78;;;;;;;4.33;76.44;101800.75;1727859;81;21205;-60
2020/12/16 10:08:12;;;;;;;16.48;10.60;;;;;;;4.29;76.41;101803.65;1735445;81;21163;-60
2020/12/16 10:10:39;;;;;;;15.23;10.50;;;;;;;4.27;76.87;101799.70;1726527;81;21296;-60
2020/12/16 10:13:07;;;;;;;17.48;10.55;;;;;;;4.33;76.81;101800.75;1719910;81;21161;-59
2020/12/16 10:15:35;;;;;;;19.00;11.60;;;;;;;4.48;76.63;101795.20;1736591;81;21215;-60
2020/12/16 10:18:03;;;;;;;13.45;9.48;;;;;;;4.48;76.65;101792.59;1728993;81;21620;-61
2020/12/16 10:20:31;;;;;;;15.03;9.78;;;;;;;4.53;76.70;101792.34;1723687;81;21240;-61
2020/12/16 10:23:00;;;;;;;14.30;9.38;;;;;;;4.54;76.88;101792.81;1715142;82;21137;-61
2020/12/16 10:25:28;;;;;;;18.87;10.23;;;;;;;4.72;76.58;101794.73;1708653;83;21187;-61
2020/12/16 10:27:56;;;;;;;16.48;11.03;;;;;;;4.73;76.76;101796.52;1687708;84;21610;-60
2020/12/16 10:30:26;;;;;;;16.57;10.48;;;;;;;4.86;76.54;101793.90;1728640;82;21348;-61
2020/12/16 10:32:54;;;;;;;16.48;10.18;;;;;;;4.96;76.11;101793.81;1719692;81;21600;-60
2020/12/16 10:35:22;;;;;;;15.28;10.58;;;;;;;4.98;75.80;101796.46;1705239;81;21633;-60
2020/12/16 10:37:49;;;;;;;16.17;10.63;;;;;;;4.97;75.83;101792.08;1695060;82;21848;-62
2020/12/16 10:40:17;;;;;;;17.10;10.23;;;;;;;5.04;75.71;101792.76;1701596;84;21664;-61
2020/12/16 10:42:44;;;;;;;17.37;10.88;;;;;;;5.04;75.83;101788.84;1710786;82;21162;-61
2020/12/16 10:45:12;;;;;;;16.32;11.12;;;;;;;5.04;75.65;101793.66;1720012;82;21642;-61
2020/12/16 10:47:40;;;;;;;17.45;11.08;;;;;;;4.98;75.18;101789.53;1723151;82;21641;-60
2020/12/16 10:50:08;;;;;;;15.43;9.98;;;;;;;4.89;75.16;101794.00;1697427;82;21661;-59
2020/12/16 10:52:36;;;;;;;15.45;10.08;;;;;;;4.76;74.83;101790.53;1720276;82;21620;-60
2020/12/16 10:55:03;;;;;;;14.30;9.70;;;;;;;4.70;75.46;101791.19;1718936;82;21173;-60
2020/12/16 10:57:31;;;;;;;15.88;10.10;;;;;;;4.76;75.34;101788.80;1718599;82;21197;-60
2020/12/16 10:59:59;;;;;;;15.40;9.48;;;;;;;4.78;75.12;101781.44;1740782;81;21293;-61
2020/12/16 11:02:27;;;;;;;16.37;10.10;;;;;;;4.76;74.99;101780.97;1733082;82;21184;-60
2020/12/16 11:04:55;;;;;;;22.67;11.43;;;;;;;4.88;75.59;101773.97;1707584;83;21550;-61
2020/12/16 11:07:22;;;;;;;20.57;12.15;;;;;;;4.98;75.86;101769.97;1716073;83;21586;-60
2020/12/16 11:10:08;;;;;;;20.48;10.80;;;;;;;5.15;75.85;101767.00;1734868;81;21131;-61
2020/12/16 11:14:02;;;;;;;16.85;10.48;;;;;;;5.16;76.11;101767.47;1698632;83;21153;-61
2020/12/16 11:20:38;;;;;;;17.27;10.65;;;;;;;5.34;75.92;101758.94;1731064;81;21312;-61
2020/12/16 11:23:06;;;;;;;17.73;10.85;;;;;;;5.43;75.82;101756.15;1708528;83;21634;-61
2020/12/16 11:25:35;;;;;;;16.48;10.68;;;;;;;5.51;75.75;101754.66;1712219;82;21627;-61
2020/12/16 11:28:03;;;;;;;18.62;11.40;;;;;;;5.51;75.46;101757.28;1725926;81;21229;-62
2020/12/16 11:30:30;;;;;;;16.65;10.18;;;;;;;5.60;75.34;101747.52;1706844;83;21684;-62
2020/12/16 11:32:58;;;;;;;17.10;10.05;;;;;;;5.66;74.95;101756.41;1713559;83;21119;-62
2020/12/16 11:35:25;;;;;;;18.45;11.12;;;;;;;5.72;74.74;101757.44;1726831;82;21639;-61
2020/12/16 11:37:53;;;;;;;17.57;10.85;;;;;;;5.85;74.55;101756.97;1713683;82;21594;-62
2020/12/16 11:40:20;;;;;;;20.43;10.72;;;;;;;5.86;74.65;101762.67;1715805;82;21161;-62
2020/12/16 11:42:48;;;;;;;15.85;10.03;;;;;;;5.88;74.61;101757.06;1712785;82;21153;-61
2020/12/16 11:45:16;;;;;;;16.10;10.20;;;;;;;5.91;74.53;101753.64;1710147;82;21657;-61
2020/12/16 11:47:44;;;;;;;15.72;10.00;;;;;;;5.80;73.74;101755.52;1720021;82;21153;-61
2020/12/16 11:50:12;;;;;;;20.27;10.55;;;;;;;5.68;73.44;101755.58;1682589;84;21803;-60
2020/12/16 11:52:40;;;;;;;18.27;11.12;;;;;;;5.68;73.90;101761.70;1717711;83;21229;-62
2020/12/16 11:55:08;;;;;;;18.05;10.05;;;;;;;5.55;74.59;101758.24;1713036;83;21293;-61
2020/12/16 11:57:38;;;;;;;17.20;10.28;;;;;;;5.61;74.59;101764.53;1720476;83;21197;-62
2020/12/16 12:00:06;;;;;;;19.55;10.30;;;;;;;5.77;74.11;101760.64;1687110;83;21148;-61
2020/12/16 12:02:35;;;;;;;17.35;10.75;;;;;;;5.84;73.63;101759.12;1732217;82;21736;-61
2020/12/16 12:05:05;;;;;;;16.20;10.13;;;;;;;5.66;72.25;101754.23;1718427;82;21417;-62
2020/12/16 12:07:34;;;;;;;16.07;10.13;;;;;;;5.55;72.94;101760.42;1712924;82;21149;-62
2020/12/16 12:10:03;;;;;;;18.02;10.55;;;;;;;5.42;73.49;101756.55;1711054;82;21177;-61
2020/12/16 12:12:31;;;;;;;20.92;12.40;;;;;;;5.48;72.91;101756.75;1723386;82;21324;-61
2020/12/16 12:14:59;;;;;;;18.67;11.73;;;;;;;5.29;71.83;101767.03;1712391;82;21141;-61
2020/12/16 12:17:28;;;;;;;26.70;13.03;;;;;;;4.98;72.30;101762.54;1719181;82;21198;-61
2020/12/16 12:19:56;;;;;;;20.90;12.10;;;;;;;4.77;72.75;101768.83;1722278;83;21321;-61
2020/12/16 12:22:24;;;;;;;19.48;11.60;;;;;;;4.72;73.20;101763.44;1725265;81;21154;-61
2020/12/16 12:24:53;;;;;;;18.92;12.23;;;;;;;4.64;73.45;101762.72;1740445;81;21255;-61
2020/12/16 12:27:22;;;;;;;18.25;11.08;;;;;;;4.83;73.02;101760.31;1745564;81;21178;-61
2020/12/16 12:29:49;;;;;;;13.93;7.80;;;;;;;4.99;72.65;101761.30;1715172;81;21634;-61
2020/12/16 12:32:18;;;;;;;22.13;11.48;;;;;;;5.04;71.54;101761.04;1701977;83;21642;-61
2020/12/16 12:34:45;;;;;;;18.75;10.95;;;;;;;4.81;72.73;101772.02;1682821;84;21327;-61
2020/12/16 12:37:13;;;;;;;21.12;12.53;;;;;;;4.86;72.93;101770.42;1717207;82;21711;-61
2020/12/16 12:39:42;;;;;;;17.55;11.35;;;;;;;4.89;72.87;101768.34;1725855;82;21300;-61
2020/12/16 12:42:10;;;;;;;19.25;12.10;;;;;;;4.91;73.07;101774.51;1731668;82;21639;-62
2020/12/16 12:44:37;;;;;;;21.75;13.22;;;;;;;4.86;73.55;101774.33;1723467;82;21204;-63
2020/12/16 12:47:05;;;;;;;18.95;12.00;;;;;;;4.94;73.42;101767.19;1716460;82;21581;-61
2020/12/16 12:49:33;;;;;;;21.87;12.80;;;;;;;5.04;73.23;101765.36;1711348;82;21624;-61
2020/12/16 12:52:01;;;;;;;17.48;11.68;;;;;;;5.10;73.01;101768.17;1721087;83;21194;-61
2020/12/16 12:54:28;;;;;;;19.57;11.90;;;;;;;5.08;72.64;101772.45;1718038;83;21293;-61
2020/12/16 12:56:56;;;;;;;24.20;13.85;;;;;;;5.06;72.65;101775.42;1700103;84;21354;-61